sensor_id;sensor_type;location;lat;lon;timestamp;temperature;humidity
66019;HTU21D;52787;51.084;5.816;2023-11-19T00:00:27;13.73;93.74
66019;HTU21D;52787;51.084;5.816;2023-11-19T00:02:53;13.74;93.83
66019;HTU21D;52787;51.084;5.816;2023-11-19T00:05:19;13.69;93.95
66019;HTU21D;52787;51.084;5.816;2023-11-19T00:07:45;13.73;93.78
66019;HTU21D;52787;51.084;5.816;2023-11-19T00:10:14;13.74;93.83
66019;HTU21D;52787;51.084;5.816;2023-11-19T00:12:46;13.73;93.90
66019;HTU21D;52787;51.084;5.816;2023-11-19T00:15:14;13.74;93.95
66019;HTU21D;52787;51.084;5.816;2023-11-19T00:17:41;13.76;93.95
66019;HTU21D;52787;51.084;5.816;2023-11-19T00:20:15;13.77;93.95
66019;HTU21D;52787;51.084;5.816;2023-11-19T00:22:42;13.74;94.07
66019;HTU21D;52787;51.084;5.816;2023-11-19T00:25:09;13.75;94.12
66019;HTU21D;52787;51.084;5.816;2023-11-19T00:27:36;13.77;94.17
66019;HTU21D;52787;51.084;5.816;2023-11-19T00:30:06;13.79;94.13
66019;HTU21D;52787;51.084;5.816;2023-11-19T00:32:33;13.81;94.08
66019;HTU21D;52787;51.084;5.816;2023-11-19T00:34:59;13.82;94.04
66019;HTU21D;52787;51.084;5.816;2023-11-19T00:37:25;13.83;93.96
66019;HTU21D;52787;51.084;5.816;2023-11-19T00:39:51;13.81;94.18
66019;HTU21D;52787;51.084;5.816;2023-11-19T00:42:18;13.83;94.42
66019;HTU21D;52787;51.084;5.816;2023-11-19T00:44:44;13.89;94.13
66019;HTU21D;52787;51.084;5.816;2023-11-19T00:47:17;13.96;93.95
66019;HTU21D;52787;51.084;5.816;2023-11-19T00:49:47;14.00;93.90
66019;HTU21D;52787;51.084;5.816;2023-11-19T00:52:16;14.05;93.62
66019;HTU21D;52787;51.084;5.816;2023-11-19T00:54:43;14.07;93.49
66019;HTU21D;52787;51.084;5.816;2023-11-19T00:57:09;14.05;93.46
66019;HTU21D;52787;51.084;5.816;2023-11-19T00:59:35;14.05;93.48
66019;HTU21D;52787;51.084;5.816;2023-11-19T01:02:00;14.09;93.30
66019;HTU21D;52787;51.084;5.816;2023-11-19T01:04:35;14.10;93.22
66019;HTU21D;52787;51.084;5.816;2023-11-19T01:07:02;14.09;93.26
66019;HTU21D;52787;51.084;5.816;2023-11-19T01:09:32;14.13;93.24
66019;HTU21D;52787;51.084;5.816;2023-11-19T01:12:00;14.14;93.24
66019;HTU21D;52787;51.084;5.816;2023-11-19T01:14:27;14.17;93.21
66019;HTU21D;52787;51.084;5.816;2023-11-19T01:16:53;14.17;93.41
66019;HTU21D;52787;51.084;5.816;2023-11-19T01:19:21;14.21;93.27
66019;HTU21D;52787;51.084;5.816;2023-11-19T01:21:48;14.22;93.16
66019;HTU21D;52787;51.084;5.816;2023-11-19T01:24:14;14.21;93.38
66019;HTU21D;52787;51.084;5.816;2023-11-19T01:26:41;14.26;93.22
66019;HTU21D;52787;51.084;5.816;2023-11-19T01:29:13;14.32;93.09
66019;HTU21D;52787;51.084;5.816;2023-11-19T01:31:45;14.34;93.07
66019;HTU21D;52787;51.084;5.816;2023-11-19T01:34:16;14.41;92.78
66019;HTU21D;52787;51.084;5.816;2023-11-19T01:36:42;14.41;92.69
66019;HTU21D;52787;51.084;5.816;2023-11-19T01:39:08;14.41;92.75
66019;HTU21D;52787;51.084;5.816;2023-11-19T01:41:35;14.41;92.53
66019;HTU21D;52787;51.084;5.816;2023-11-19T01:44:06;14.40;92.59
66019;HTU21D;52787;51.084;5.816;2023-11-19T01:46:32;14.39;92.59
66019;HTU21D;52787;51.084;5.816;2023-11-19T01:49:00;14.40;92.53
66019;HTU21D;52787;51.084;5.816;2023-11-19T01:51:27;14.42;92.40
66019;HTU21D;52787;51.084;5.816;2023-11-19T01:53:53;14.48;92.20
66019;HTU21D;52787;51.084;5.816;2023-11-19T01:56:20;14.43;92.18
66019;HTU21D;52787;51.084;5.816;2023-11-19T01:58:48;14.42;92.13
66019;HTU21D;52787;51.084;5.816;2023-11-19T02:01:15;14.44;91.88
66019;HTU21D;52787;51.084;5.816;2023-11-19T02:03:42;14.40;91.96
66019;HTU21D;52787;51.084;5.816;2023-11-19T02:06:08;14.41;91.85
66019;HTU21D;52787;51.084;5.816;2023-11-19T02:08:36;14.38;91.79
66019;HTU21D;52787;51.084;5.816;2023-11-19T02:11:02;14.38;91.62
66019;HTU21D;52787;51.084;5.816;2023-11-19T02:13:28;14.36;91.58
66019;HTU21D;52787;51.084;5.816;2023-11-19T02:15:54;14.36;91.31
66019;HTU21D;52787;51.084;5.816;2023-11-19T02:18:26;14.33;91.51
66019;HTU21D;52787;51.084;5.816;2023-11-19T02:21:00;14.27;91.65
66019;HTU21D;52787;51.084;5.816;2023-11-19T02:23:27;14.28;91.66
66019;HTU21D;52787;51.084;5.816;2023-11-19T02:28:43;14.32;91.21
66019;HTU21D;52787;51.084;5.816;2023-11-19T02:31:10;14.29;91.40
66019;HTU21D;52787;51.084;5.816;2023-11-19T02:33:39;14.32;91.10
66019;HTU21D;52787;51.084;5.816;2023-11-19T02:36:06;14.27;91.15
66019;HTU21D;52787;51.084;5.816;2023-11-19T02:38:34;14.32;90.95
66019;HTU21D;52787;51.084;5.816;2023-11-19T02:41:04;14.37;90.67
66019;HTU21D;52787;51.084;5.816;2023-11-19T02:43:32;14.37;90.45
66019;HTU21D;52787;51.084;5.816;2023-11-19T02:46:02;14.33;90.40
66019;HTU21D;52787;51.084;5.816;2023-11-19T02:48:32;14.34;90.24
66019;HTU21D;52787;51.084;5.816;2023-11-19T02:51:01;14.34;89.77
66019;HTU21D;52787;51.084;5.816;2023-11-19T02:53:29;14.36;89.37
66019;HTU21D;52787;51.084;5.816;2023-11-19T02:55:55;14.35;89.01
66019;HTU21D;52787;51.084;5.816;2023-11-19T02:58:27;14.43;88.33
66019;HTU21D;52787;51.084;5.816;2023-11-19T03:00:55;14.44;87.67
66019;HTU21D;52787;51.084;5.816;2023-11-19T03:03:27;14.44;86.91
66019;HTU21D;52787;51.084;5.816;2023-11-19T03:06:07;14.40;87.19
66019;HTU21D;52787;51.084;5.816;2023-11-19T03:08:36;14.40;86.78
66019;HTU21D;52787;51.084;5.816;2023-11-19T03:11:02;14.37;86.79
66019;HTU21D;52787;51.084;5.816;2023-11-19T03:13:27;14.39;86.70
66019;HTU21D;52787;51.084;5.816;2023-11-19T03:15:53;14.38;86.92
66019;HTU21D;52787;51.084;5.816;2023-11-19T03:18:20;14.33;87.19
66019;HTU21D;52787;51.084;5.816;2023-11-19T03:20:46;14.32;87.30
66019;HTU21D;52787;51.084;5.816;2023-11-19T03:23:12;14.32;87.40
66019;HTU21D;52787;51.084;5.816;2023-11-19T03:25:38;14.27;87.78
66019;HTU21D;52787;51.084;5.816;2023-11-19T03:28:04;14.22;88.26
66019;HTU21D;52787;51.084;5.816;2023-11-19T03:30:31;14.23;88.29
66019;HTU21D;52787;51.084;5.816;2023-11-19T03:32:57;14.19;88.48
66019;HTU21D;52787;51.084;5.816;2023-11-19T03:35:23;14.13;88.87
66019;HTU21D;52787;51.084;5.816;2023-11-19T03:37:51;14.10;89.01
66019;HTU21D;52787;51.084;5.816;2023-11-19T03:40:18;14.07;89.06
66019;HTU21D;52787;51.084;5.816;2023-11-19T03:42:45;14.01;89.45
66019;HTU21D;52787;51.084;5.816;2023-11-19T03:45:11;13.99;89.37
66019;HTU21D;52787;51.084;5.816;2023-11-19T03:47:38;13.96;89.50
66019;HTU21D;52787;51.084;5.816;2023-11-19T03:50:04;13.93;89.67
66019;HTU21D;52787;51.084;5.816;2023-11-19T03:52:31;13.91;89.76
66019;HTU21D;52787;51.084;5.816;2023-11-19T03:54:57;13.90;89.81
66019;HTU21D;52787;51.084;5.816;2023-11-19T03:57:23;13.93;89.69
66019;HTU21D;52787;51.084;5.816;2023-11-19T03:59:49;13.93;89.57
66019;HTU21D;52787;51.084;5.816;2023-11-19T04:02:16;13.92;89.22
66019;HTU21D;52787;51.084;5.816;2023-11-19T04:04:42;13.93;89.05
66019;HTU21D;52787;51.084;5.816;2023-11-19T04:07:08;13.96;88.68
66019;HTU21D;52787;51.084;5.816;2023-11-19T04:09:34;13.97;88.51
66019;HTU21D;52787;51.084;5.816;2023-11-19T04:12:01;13.93;88.15
66019;HTU21D;52787;51.084;5.816;2023-11-19T04:14:27;13.94;87.93
66019;HTU21D;52787;51.084;5.816;2023-11-19T04:16:53;13.92;87.94
66019;HTU21D;52787;51.084;5.816;2023-11-19T04:19:19;13.91;87.94
66019;HTU21D;52787;51.084;5.816;2023-11-19T04:21:45;13.85;87.61
66019;HTU21D;52787;51.084;5.816;2023-11-19T04:24:12;13.91;87.57
66019;HTU21D;52787;51.084;5.816;2023-11-19T04:26:42;13.89;87.36
66019;HTU21D;52787;51.084;5.816;2023-11-19T04:29:14;13.89;87.48
66019;HTU21D;52787;51.084;5.816;2023-11-19T04:31:43;13.89;87.30
66019;HTU21D;52787;51.084;5.816;2023-11-19T04:34:10;13.84;87.60
66019;HTU21D;52787;51.084;5.816;2023-11-19T04:36:37;13.82;87.68
66019;HTU21D;52787;51.084;5.816;2023-11-19T04:39:03;13.81;87.84
66019;HTU21D;52787;51.084;5.816;2023-11-19T04:41:48;13.75;87.82
66019;HTU21D;52787;51.084;5.816;2023-11-19T04:44:16;13.75;87.47
66019;HTU21D;52787;51.084;5.816;2023-11-19T04:46:42;13.70;87.44
66019;HTU21D;52787;51.084;5.816;2023-11-19T04:49:12;13.73;87.38
66019;HTU21D;52787;51.084;5.816;2023-11-19T04:51:43;13.70;87.32
66019;HTU21D;52787;51.084;5.816;2023-11-19T04:54:12;13.67;87.03
66019;HTU21D;52787;51.084;5.816;2023-11-19T04:56:39;13.74;87.00
66019;HTU21D;52787;51.084;5.816;2023-11-19T04:59:06;13.74;86.67
66019;HTU21D;52787;51.084;5.816;2023-11-19T05:01:33;13.73;86.64
66019;HTU21D;52787;51.084;5.816;2023-11-19T05:03:59;13.71;86.50
66019;HTU21D;52787;51.084;5.816;2023-11-19T05:06:29;13.74;86.33
66019;HTU21D;52787;51.084;5.816;2023-11-19T05:08:58;13.73;86.26
66019;HTU21D;52787;51.084;5.816;2023-11-19T05:11:30;13.71;86.32
66019;HTU21D;52787;51.084;5.816;2023-11-19T05:13:56;13.67;86.23
66019;HTU21D;52787;51.084;5.816;2023-11-19T05:16:22;13.65;86.43
66019;HTU21D;52787;51.084;5.816;2023-11-19T05:18:48;13.64;86.52
66019;HTU21D;52787;51.084;5.816;2023-11-19T05:21:14;13.55;86.25
66019;HTU21D;52787;51.084;5.816;2023-11-19T05:23:39;13.62;85.90
66019;HTU21D;52787;51.084;5.816;2023-11-19T05:26:07;13.62;85.45
66019;HTU21D;52787;51.084;5.816;2023-11-19T05:28:33;13.67;85.16
66019;HTU21D;52787;51.084;5.816;2023-11-19T05:30:58;13.67;84.96
66019;HTU21D;52787;51.084;5.816;2023-11-19T05:33:24;13.64;84.48
66019;HTU21D;52787;51.084;5.816;2023-11-19T05:35:50;13.63;84.19
66019;HTU21D;52787;51.084;5.816;2023-11-19T05:38:16;13.65;83.85
66019;HTU21D;52787;51.084;5.816;2023-11-19T05:40:42;13.66;83.77
66019;HTU21D;52787;51.084;5.816;2023-11-19T05:43:09;13.64;83.78
66019;HTU21D;52787;51.084;5.816;2023-11-19T05:45:34;13.64;83.74
66019;HTU21D;52787;51.084;5.816;2023-11-19T05:48:00;13.58;83.68
66019;HTU21D;52787;51.084;5.816;2023-11-19T05:50:26;13.61;83.65
66019;HTU21D;52787;51.084;5.816;2023-11-19T05:52:52;13.58;83.87
66019;HTU21D;52787;51.084;5.816;2023-11-19T05:55:19;13.54;83.83
66019;HTU21D;52787;51.084;5.816;2023-11-19T05:57:45;13.50;83.69
66019;HTU21D;52787;51.084;5.816;2023-11-19T06:00:11;13.50;83.94
66019;HTU21D;52787;51.084;5.816;2023-11-19T06:02:38;13.47;83.88
66019;HTU21D;52787;51.084;5.816;2023-11-19T06:05:05;13.46;83.30
66019;HTU21D;52787;51.084;5.816;2023-11-19T06:07:35;13.41;82.75
66019;HTU21D;52787;51.084;5.816;2023-11-19T06:10:03;13.44;82.75
66019;HTU21D;52787;51.084;5.816;2023-11-19T06:12:31;13.43;82.70
66019;HTU21D;52787;51.084;5.816;2023-11-19T06:15:00;13.40;82.59
66019;HTU21D;52787;51.084;5.816;2023-11-19T06:17:25;13.40;82.58
66019;HTU21D;52787;51.084;5.816;2023-11-19T06:19:51;13.37;82.63
66019;HTU21D;52787;51.084;5.816;2023-11-19T06:22:17;13.30;82.96
66019;HTU21D;52787;51.084;5.816;2023-11-19T06:24:43;13.30;82.94
66019;HTU21D;52787;51.084;5.816;2023-11-19T06:27:09;13.29;82.78
66019;HTU21D;52787;51.084;5.816;2023-11-19T06:29:34;13.26;82.75
66019;HTU21D;52787;51.084;5.816;2023-11-19T06:32:00;13.23;82.58
66019;HTU21D;52787;51.084;5.816;2023-11-19T06:34:26;13.21;82.39
66019;HTU21D;52787;51.084;5.816;2023-11-19T06:36:52;13.19;82.39
66019;HTU21D;52787;51.084;5.816;2023-11-19T06:39:18;13.18;82.49
66019;HTU21D;52787;51.084;5.816;2023-11-19T06:41:48;13.16;82.24
66019;HTU21D;52787;51.084;5.816;2023-11-19T06:44:14;13.16;82.30
66019;HTU21D;52787;51.084;5.816;2023-11-19T06:46:40;13.16;82.26
66019;HTU21D;52787;51.084;5.816;2023-11-19T06:49:06;13.15;82.11
66019;HTU21D;52787;51.084;5.816;2023-11-19T06:51:33;13.14;81.98
66019;HTU21D;52787;51.084;5.816;2023-11-19T06:53:59;13.09;82.10
66019;HTU21D;52787;51.084;5.816;2023-11-19T06:56:25;13.11;82.17
66019;HTU21D;52787;51.084;5.816;2023-11-19T06:58:51;13.08;82.30
66019;HTU21D;52787;51.084;5.816;2023-11-19T07:01:18;13.06;82.46
66019;HTU21D;52787;51.084;5.816;2023-11-19T07:03:47;13.07;82.65
66019;HTU21D;52787;51.084;5.816;2023-11-19T07:06:13;13.07;82.89
66019;HTU21D;52787;51.084;5.816;2023-11-19T07:08:41;13.05;83.02
66019;HTU21D;52787;51.084;5.816;2023-11-19T07:11:07;13.03;83.13
66019;HTU21D;52787;51.084;5.816;2023-11-19T07:13:35;13.03;83.26
66019;HTU21D;52787;51.084;5.816;2023-11-19T07:16:01;13.02;83.37
66019;HTU21D;52787;51.084;5.816;2023-11-19T07:18:27;13.00;83.33
66019;HTU21D;52787;51.084;5.816;2023-11-19T07:20:52;12.96;83.48
66019;HTU21D;52787;51.084;5.816;2023-11-19T07:23:19;12.96;83.52
66019;HTU21D;52787;51.084;5.816;2023-11-19T07:25:47;12.95;83.55
66019;HTU21D;52787;51.084;5.816;2023-11-19T07:28:13;12.93;83.65
66019;HTU21D;52787;51.084;5.816;2023-11-19T07:30:40;12.96;83.68
66019;HTU21D;52787;51.084;5.816;2023-11-19T07:33:05;12.95;83.75
66019;HTU21D;52787;51.084;5.816;2023-11-19T07:35:32;12.95;83.79
66019;HTU21D;52787;51.084;5.816;2023-11-19T07:37:58;13.01;83.84
66019;HTU21D;52787;51.084;5.816;2023-11-19T07:40:24;12.99;83.98
66019;HTU21D;52787;51.084;5.816;2023-11-19T07:42:50;12.97;83.91
66019;HTU21D;52787;51.084;5.816;2023-11-19T07:45:17;13.03;83.95
66019;HTU21D;52787;51.084;5.816;2023-11-19T07:47:43;13.07;83.80
66019;HTU21D;52787;51.084;5.816;2023-11-19T07:50:12;13.09;83.54
66019;HTU21D;52787;51.084;5.816;2023-11-19T07:52:42;13.14;83.52
66019;HTU21D;52787;51.084;5.816;2023-11-19T07:55:08;13.09;83.42
66019;HTU21D;52787;51.084;5.816;2023-11-19T07:57:34;13.14;83.52
66019;HTU21D;52787;51.084;5.816;2023-11-19T08:00:00;13.18;83.35
66019;HTU21D;52787;51.084;5.816;2023-11-19T08:02:27;13.20;83.22
66019;HTU21D;52787;51.084;5.816;2023-11-19T08:04:53;13.22;83.06
66019;HTU21D;52787;51.084;5.816;2023-11-19T08:07:21;13.24;82.88
66019;HTU21D;52787;51.084;5.816;2023-11-19T08:09:47;13.27;82.69
66019;HTU21D;52787;51.084;5.816;2023-11-19T08:12:13;13.25;82.74
66019;HTU21D;52787;51.084;5.816;2023-11-19T08:14:42;13.30;82.52
66019;HTU21D;52787;51.084;5.816;2023-11-19T08:17:09;13.26;82.77
66019;HTU21D;52787;51.084;5.816;2023-11-19T08:19:35;13.30;82.24
66019;HTU21D;52787;51.084;5.816;2023-11-19T08:22:01;13.32;82.35
66019;HTU21D;52787;51.084;5.816;2023-11-19T08:24:27;13.39;82.14
66019;HTU21D;52787;51.084;5.816;2023-11-19T08:26:53;13.37;81.94
66019;HTU21D;52787;51.084;5.816;2023-11-19T08:29:19;13.44;81.95
66019;HTU21D;52787;51.084;5.816;2023-11-19T08:31:46;13.41;81.13
66019;HTU21D;52787;51.084;5.816;2023-11-19T08:34:12;13.49;81.04
66019;HTU21D;52787;51.084;5.816;2023-11-19T08:36:38;13.52;80.75
66019;HTU21D;52787;51.084;5.816;2023-11-19T08:39:04;13.55;80.76
66019;HTU21D;52787;51.084;5.816;2023-11-19T08:41:30;13.63;80.67
66019;HTU21D;52787;51.084;5.816;2023-11-19T08:43:55;13.68;80.41
66019;HTU21D;52787;51.084;5.816;2023-11-19T08:46:21;13.70;80.24
66019;HTU21D;52787;51.084;5.816;2023-11-19T08:48:47;13.70;79.79
66019;HTU21D;52787;51.084;5.816;2023-11-19T08:51:13;13.77;79.69
66019;HTU21D;52787;51.084;5.816;2023-11-19T08:53:39;13.77;79.94
66019;HTU21D;52787;51.084;5.816;2023-11-19T08:56:05;13.69;79.71
66019;HTU21D;52787;51.084;5.816;2023-11-19T08:58:31;13.68;79.66
66019;HTU21D;52787;51.084;5.816;2023-11-19T09:00:57;13.69;79.85
66019;HTU21D;52787;51.084;5.816;2023-11-19T09:03:23;13.73;79.57
66019;HTU21D;52787;51.084;5.816;2023-11-19T09:05:52;13.70;79.24
66019;HTU21D;52787;51.084;5.816;2023-11-19T09:08:19;13.67;79.39
66019;HTU21D;52787;51.084;5.816;2023-11-19T09:10:45;13.76;79.30
66019;HTU21D;52787;51.084;5.816;2023-11-19T09:13:11;13.83;78.70
66019;HTU21D;52787;51.084;5.816;2023-11-19T09:15:38;13.94;78.89
66019;HTU21D;52787;51.084;5.816;2023-11-19T09:18:04;14.07;77.92
66019;HTU21D;52787;51.084;5.816;2023-11-19T09:20:30;14.12;77.59
66019;HTU21D;52787;51.084;5.816;2023-11-19T09:23:03;14.18;77.71
66019;HTU21D;52787;51.084;5.816;2023-11-19T09:25:29;14.21;77.04
66019;HTU21D;52787;51.084;5.816;2023-11-19T09:27:54;14.25;77.62
66019;HTU21D;52787;51.084;5.816;2023-11-19T09:30:20;14.36;77.44
66019;HTU21D;52787;51.084;5.816;2023-11-19T09:32:46;14.40;76.65
66019;HTU21D;52787;51.084;5.816;2023-11-19T09:35:12;14.42;76.34
66019;HTU21D;52787;51.084;5.816;2023-11-19T09:37:40;14.36;76.66
66019;HTU21D;52787;51.084;5.816;2023-11-19T09:40:07;14.39;76.86
66019;HTU21D;52787;51.084;5.816;2023-11-19T09:42:43;14.47;76.05
66019;HTU21D;52787;51.084;5.816;2023-11-19T09:45:16;14.49;75.65
66019;HTU21D;52787;51.084;5.816;2023-11-19T09:47:45;14.55;75.44
66019;HTU21D;52787;51.084;5.816;2023-11-19T09:50:19;14.62;75.10
66019;HTU21D;52787;51.084;5.816;2023-11-19T09:52:46;14.71;74.56
66019;HTU21D;52787;51.084;5.816;2023-11-19T09:55:13;14.78;74.51
66019;HTU21D;52787;51.084;5.816;2023-11-19T09:57:40;14.72;74.23
66019;HTU21D;52787;51.084;5.816;2023-11-19T10:00:10;14.64;74.22
66019;HTU21D;52787;51.084;5.816;2023-11-19T10:02:38;14.68;74.40
66019;HTU21D;52787;51.084;5.816;2023-11-19T10:05:07;14.78;74.23
66019;HTU21D;52787;51.084;5.816;2023-11-19T10:07:33;14.84;74.06
66019;HTU21D;52787;51.084;5.816;2023-11-19T10:10:03;14.80;73.84
66019;HTU21D;52787;51.084;5.816;2023-11-19T10:12:31;14.75;74.31
66019;HTU21D;52787;51.084;5.816;2023-11-19T10:14:57;14.65;74.76
66019;HTU21D;52787;51.084;5.816;2023-11-19T10:17:28;14.65;74.44
66019;HTU21D;52787;51.084;5.816;2023-11-19T10:19:58;14.66;73.95
66019;HTU21D;52787;51.084;5.816;2023-11-19T10:22:24;14.68;73.97
66019;HTU21D;52787;51.084;5.816;2023-11-19T10:24:52;14.68;73.93
66019;HTU21D;52787;51.084;5.816;2023-11-19T10:27:18;14.84;72.84
66019;HTU21D;52787;51.084;5.816;2023-11-19T10:29:47;15.11;73.15
66019;HTU21D;52787;51.084;5.816;2023-11-19T10:32:13;15.24;72.31
66019;HTU21D;52787;51.084;5.816;2023-11-19T10:34:42;15.34;71.84
66019;HTU21D;52787;51.084;5.816;2023-11-19T10:37:09;15.48;71.45
66019;HTU21D;52787;51.084;5.816;2023-11-19T10:39:53;15.65;71.28
66019;HTU21D;52787;51.084;5.816;2023-11-19T10:42:20;15.78;70.89
66019;HTU21D;52787;51.084;5.816;2023-11-19T10:44:46;16.05;70.28
66019;HTU21D;52787;51.084;5.816;2023-11-19T10:47:14;16.45;68.55
66019;HTU21D;52787;51.084;5.816;2023-11-19T10:49:42;17.06;66.49
66019;HTU21D;52787;51.084;5.816;2023-11-19T10:52:09;17.19;65.06
66019;HTU21D;52787;51.084;5.816;2023-11-19T10:54:35;17.07;65.80
66019;HTU21D;52787;51.084;5.816;2023-11-19T10:57:02;16.80;66.16
66019;HTU21D;52787;51.084;5.816;2023-11-19T10:59:30;16.41;66.07
66019;HTU21D;52787;51.084;5.816;2023-11-19T11:02:03;16.24;67.04
66019;HTU21D;52787;51.084;5.816;2023-11-19T11:04:40;16.07;67.01
66019;HTU21D;52787;51.084;5.816;2023-11-19T11:07:09;15.84;67.99
66019;HTU21D;52787;51.084;5.816;2023-11-19T11:09:35;15.66;68.59
66019;HTU21D;52787;51.084;5.816;2023-11-19T11:12:01;15.52;69.10
66019;HTU21D;52787;51.084;5.816;2023-11-19T11:14:29;15.39;69.10
66019;HTU21D;52787;51.084;5.816;2023-11-19T11:16:56;15.21;69.54
66019;HTU21D;52787;51.084;5.816;2023-11-19T11:19:23;15.15;70.07
66019;HTU21D;52787;51.084;5.816;2023-11-19T11:21:54;15.13;70.74
66019;HTU21D;52787;51.084;5.816;2023-11-19T11:33:37;16.08;67.95
66019;HTU21D;52787;51.084;5.816;2023-11-19T11:36:22;15.98;68.15
66019;HTU21D;52787;51.084;5.816;2023-11-19T11:38:49;15.86;68.91
66019;HTU21D;52787;51.084;5.816;2023-11-19T11:41:20;15.76;69.36
66019;HTU21D;52787;51.084;5.816;2023-11-19T11:43:54;15.53;69.77
66019;HTU21D;52787;51.084;5.816;2023-11-19T11:49:01;15.19;70.93
66019;HTU21D;52787;51.084;5.816;2023-11-19T11:54:26;14.97;72.12
66019;HTU21D;52787;51.084;5.816;2023-11-19T11:57:13;14.93;73.57
66019;HTU21D;52787;51.084;5.816;2023-11-19T12:02:16;14.80;74.64
66019;HTU21D;52787;51.084;5.816;2023-11-19T12:04:50;14.84;75.03
66019;HTU21D;52787;51.084;5.816;2023-11-19T12:07:24;14.89;75.01
66019;HTU21D;52787;51.084;5.816;2023-11-19T12:09:53;14.88;74.48
66019;HTU21D;52787;51.084;5.816;2023-11-19T12:12:26;14.96;74.99
66019;HTU21D;52787;51.084;5.816;2023-11-19T12:20:21;15.60;74.60
66019;HTU21D;52787;51.084;5.816;2023-11-19T12:22:48;16.33;69.84
66019;HTU21D;52787;51.084;5.816;2023-11-19T12:25:16;16.72;67.47
66019;HTU21D;52787;51.084;5.816;2023-11-19T12:28:01;16.69;67.72
66019;HTU21D;52787;51.084;5.816;2023-11-19T12:30:29;16.95;66.20
66019;HTU21D;52787;51.084;5.816;2023-11-19T12:32:55;16.94;67.69
66019;HTU21D;52787;51.084;5.816;2023-11-19T12:35:22;18.44;64.43
66019;HTU21D;52787;51.084;5.816;2023-11-19T12:37:50;20.19;58.29
66019;HTU21D;52787;51.084;5.816;2023-11-19T12:40:17;21.52;53.76
66019;HTU21D;52787;51.084;5.816;2023-11-19T12:42:51;22.36;49.16
66019;HTU21D;52787;51.084;5.816;2023-11-19T12:45:18;22.29;50.01
66019;HTU21D;52787;51.084;5.816;2023-11-19T12:47:47;22.64;48.66
66019;HTU21D;52787;51.084;5.816;2023-11-19T12:50:14;23.16;47.54
66019;HTU21D;52787;51.084;5.816;2023-11-19T12:52:43;22.99;46.33
66019;HTU21D;52787;51.084;5.816;2023-11-19T12:55:28;22.54;47.45
66019;HTU21D;52787;51.084;5.816;2023-11-19T12:57:56;22.33;48.04
66019;HTU21D;52787;51.084;5.816;2023-11-19T13:00:24;21.87;48.00
66019;HTU21D;52787;51.084;5.816;2023-11-19T13:02:56;20.59;51.31
66019;HTU21D;52787;51.084;5.816;2023-11-19T13:05:33;19.16;55.10
66019;HTU21D;52787;51.084;5.816;2023-11-19T13:08:05;17.91;58.98
66019;HTU21D;52787;51.084;5.816;2023-11-19T13:10:53;17.02;62.47
66019;HTU21D;52787;51.084;5.816;2023-11-19T13:13:21;16.36;65.26
66019;HTU21D;52787;51.084;5.816;2023-11-19T13:15:47;15.96;68.36
66019;HTU21D;52787;51.084;5.816;2023-11-19T13:18:16;15.60;69.03
66019;HTU21D;52787;51.084;5.816;2023-11-19T13:20:42;15.39;71.14
66019;HTU21D;52787;51.084;5.816;2023-11-19T13:23:08;15.24;71.81
66019;HTU21D;52787;51.084;5.816;2023-11-19T13:25:36;15.07;71.86
66019;HTU21D;52787;51.084;5.816;2023-11-19T13:28:03;14.93;73.11
66019;HTU21D;52787;51.084;5.816;2023-11-19T13:30:29;14.77;74.20
66019;HTU21D;52787;51.084;5.816;2023-11-19T13:32:55;14.56;75.42
66019;HTU21D;52787;51.084;5.816;2023-11-19T13:35:21;14.43;76.38
66019;HTU21D;52787;51.084;5.816;2023-11-19T13:37:50;14.36;76.94
66019;HTU21D;52787;51.084;5.816;2023-11-19T13:40:17;14.30;77.09
66019;HTU21D;52787;51.084;5.816;2023-11-19T13:42:43;14.28;76.72
66019;HTU21D;52787;51.084;5.816;2023-11-19T13:45:13;14.28;77.05
66019;HTU21D;52787;51.084;5.816;2023-11-19T13:47:44;14.34;76.95
66019;HTU21D;52787;51.084;5.816;2023-11-19T13:50:13;14.45;76.44
66019;HTU21D;52787;51.084;5.816;2023-11-19T13:52:42;14.53;75.74
66019;HTU21D;52787;51.084;5.816;2023-11-19T13:55:10;14.72;74.59
66019;HTU21D;52787;51.084;5.816;2023-11-19T13:57:40;15.22;72.89
66019;HTU21D;52787;51.084;5.816;2023-11-19T14:00:09;15.19;71.48
66019;HTU21D;52787;51.084;5.816;2023-11-19T14:02:39;15.07;72.06
66019;HTU21D;52787;51.084;5.816;2023-11-19T14:05:06;15.07;71.66
66019;HTU21D;52787;51.084;5.816;2023-11-19T14:07:33;14.93;72.04
66019;HTU21D;52787;51.084;5.816;2023-11-19T14:09:59;14.73;72.58
66019;HTU21D;52787;51.084;5.816;2023-11-19T14:12:25;14.58;73.40
66019;HTU21D;52787;51.084;5.816;2023-11-19T14:14:50;14.45;73.70
66019;HTU21D;52787;51.084;5.816;2023-11-19T14:17:16;14.40;74.64
66019;HTU21D;52787;51.084;5.816;2023-11-19T14:19:42;14.28;75.93
66019;HTU21D;52787;51.084;5.816;2023-11-19T14:22:08;14.22;77.07
66019;HTU21D;52787;51.084;5.816;2023-11-19T14:24:34;14.01;78.59
66019;HTU21D;52787;51.084;5.816;2023-11-19T14:27:01;13.99;78.97
66019;HTU21D;52787;51.084;5.816;2023-11-19T14:29:27;13.94;79.36
66019;HTU21D;52787;51.084;5.816;2023-11-19T14:31:56;13.92;79.86
66019;HTU21D;52787;51.084;5.816;2023-11-19T14:34:24;13.86;80.44
66019;HTU21D;52787;51.084;5.816;2023-11-19T14:36:52;13.83;80.81
66019;HTU21D;52787;51.084;5.816;2023-11-19T14:39:19;13.80;80.94
66019;HTU21D;52787;51.084;5.816;2023-11-19T14:41:44;13.78;80.86
66019;HTU21D;52787;51.084;5.816;2023-11-19T14:44:10;13.73;81.38
66019;HTU21D;52787;51.084;5.816;2023-11-19T14:46:36;13.68;81.34
66019;HTU21D;52787;51.084;5.816;2023-11-19T14:49:02;13.63;81.86
66019;HTU21D;52787;51.084;5.816;2023-11-19T14:51:35;13.59;82.28
66019;HTU21D;52787;51.084;5.816;2023-11-19T14:54:04;13.59;81.97
66019;HTU21D;52787;51.084;5.816;2023-11-19T14:56:30;13.63;81.17
66019;HTU21D;52787;51.084;5.816;2023-11-19T14:58:56;13.69;80.94
66019;HTU21D;52787;51.084;5.816;2023-11-19T15:01:21;13.73;80.39
66019;HTU21D;52787;51.084;5.816;2023-11-19T15:03:47;13.74;79.78
66019;HTU21D;52787;51.084;5.816;2023-11-19T15:06:13;13.74;79.56
66019;HTU21D;52787;51.084;5.816;2023-11-19T15:08:39;13.73;79.55
66019;HTU21D;52787;51.084;5.816;2023-11-19T15:11:05;13.74;79.22
66019;HTU21D;52787;51.084;5.816;2023-11-19T15:13:32;13.71;78.63
66019;HTU21D;52787;51.084;5.816;2023-11-19T15:15:58;13.74;78.72
66019;HTU21D;52787;51.084;5.816;2023-11-19T15:18:24;13.74;78.86
66019;HTU21D;52787;51.084;5.816;2023-11-19T15:20:50;13.71;78.43
66019;HTU21D;52787;51.084;5.816;2023-11-19T15:23:16;13.73;78.59
66019;HTU21D;52787;51.084;5.816;2023-11-19T15:25:42;13.75;78.69
66019;HTU21D;52787;51.084;5.816;2023-11-19T15:28:08;13.73;78.43
66019;HTU21D;52787;51.084;5.816;2023-11-19T15:30:35;13.71;77.98
66019;HTU21D;52787;51.084;5.816;2023-11-19T15:33:00;13.65;77.86
66019;HTU21D;52787;51.084;5.816;2023-11-19T15:35:26;13.63;78.05
66019;HTU21D;52787;51.084;5.816;2023-11-19T15:37:52;13.64;77.60
66019;HTU21D;52787;51.084;5.816;2023-11-19T15:40:18;13.63;77.94
66019;HTU21D;52787;51.084;5.816;2023-11-19T15:42:44;13.65;77.75